sensor_id;sensor_type;location;lat;lon;timestamp;temperature;humidity
10388;DHT22;5240;51.128;4.566;2022-12-29T00:01:32;10.80;99.90
10388;DHT22;5240;51.128;4.566;2022-12-29T00:03:59;10.80;99.90
10388;DHT22;5240;51.128;4.566;2022-12-29T00:06:28;10.90;99.90
10388;DHT22;5240;51.128;4.566;2022-12-29T00:08:55;11.00;99.90
10388;DHT22;5240;51.128;4.566;2022-12-29T00:11:24;11.00;99.90
10388;DHT22;5240;51.128;4.566;2022-12-29T00:13:52;11.00;99.90
10388;DHT22;5240;51.128;4.566;2022-12-29T00:16:37;11.00;99.90
10388;DHT22;5240;51.128;4.566;2022-12-29T00:19:05;11.00;99.90
10388;DHT22;5240;51.128;4.566;2022-12-29T00:21:33;11.10;99.90
10388;DHT22;5240;51.128;4.566;2022-12-29T00:24:19;11.00;99.90
10388;DHT22;5240;51.128;4.566;2022-12-29T00:27:11;11.10;99.90
10388;DHT22;5240;51.128;4.566;2022-12-29T00:29:56;11.10;99.90
10388;DHT22;5240;51.128;4.566;2022-12-29T00:32:40;11.10;99.90
10388;DHT22;5240;51.128;4.566;2022-12-29T00:35:27;11.10;99.90
10388;DHT22;5240;51.128;4.566;2022-12-29T00:37:59;11.20;99.90
10388;DHT22;5240;51.128;4.566;2022-12-29T00:40:45;11.20;99.90
10388;DHT22;5240;51.128;4.566;2022-12-29T00:43:30;11.30;99.90
10388;DHT22;5240;51.128;4.566;2022-12-29T00:46:22;11.30;99.90
10388;DHT22;5240;51.128;4.566;2022-12-29T00:48:49;11.40;99.90
10388;DHT22;5240;51.128;4.566;2022-12-29T00:51:34;11.40;99.90
10388;DHT22;5240;51.128;4.566;2022-12-29T00:54:02;11.50;99.90
10388;DHT22;5240;51.128;4.566;2022-12-29T00:56:29;11.60;99.90
10388;DHT22;5240;51.128;4.566;2022-12-29T00:59:00;11.60;99.90
10388;DHT22;5240;51.128;4.566;2022-12-29T01:01:27;11.60;99.90
10388;DHT22;5240;51.128;4.566;2022-12-29T01:03:54;11.60;99.90
10388;DHT22;5240;51.128;4.566;2022-12-29T01:06:21;11.60;99.90
10388;DHT22;5240;51.128;4.566;2022-12-29T01:08:48;11.60;99.90
10388;DHT22;5240;51.128;4.566;2022-12-29T01:11:36;11.60;99.90
10388;DHT22;5240;51.128;4.566;2022-12-29T01:14:03;11.60;99.90
10388;DHT22;5240;51.128;4.566;2022-12-29T01:16:30;11.60;99.90
10388;DHT22;5240;51.128;4.566;2022-12-29T01:18:57;11.60;99.90
10388;DHT22;5240;51.128;4.566;2022-12-29T01:21:25;11.70;99.90
10388;DHT22;5240;51.128;4.566;2022-12-29T01:23:52;11.60;99.90
10388;DHT22;5240;51.128;4.566;2022-12-29T01:26:19;11.60;99.90
10388;DHT22;5240;51.128;4.566;2022-12-29T01:28:47;11.60;99.90
10388;DHT22;5240;51.128;4.566;2022-12-29T01:31:15;11.60;99.90
10388;DHT22;5240;51.128;4.566;2022-12-29T01:33:43;11.60;99.90
10388;DHT22;5240;51.128;4.566;2022-12-29T01:36:12;11.60;99.90
10388;DHT22;5240;51.128;4.566;2022-12-29T01:38:40;11.60;99.90
10388;DHT22;5240;51.128;4.566;2022-12-29T01:41:09;11.60;99.90
10388;DHT22;5240;51.128;4.566;2022-12-29T01:43:41;11.60;99.90
10388;DHT22;5240;51.128;4.566;2022-12-29T01:46:18;11.50;99.90
10388;DHT22;5240;51.128;4.566;2022-12-29T01:48:51;11.50;99.90
10388;DHT22;5240;51.128;4.566;2022-12-29T01:51:21;11.40;99.90
10388;DHT22;5240;51.128;4.566;2022-12-29T01:53:50;11.30;99.90
10388;DHT22;5240;51.128;4.566;2022-12-29T01:56:18;11.30;99.90
10388;DHT22;5240;51.128;4.566;2022-12-29T01:58:50;11.20;99.90
10388;DHT22;5240;51.128;4.566;2022-12-29T02:01:21;11.30;99.90
10388;DHT22;5240;51.128;4.566;2022-12-29T02:03:49;11.30;99.90
10388;DHT22;5240;51.128;4.566;2022-12-29T02:06:21;11.30;99.90
10388;DHT22;5240;51.128;4.566;2022-12-29T02:08:50;11.20;99.90
10388;DHT22;5240;51.128;4.566;2022-12-29T02:11:19;11.20;99.90
10388;DHT22;5240;51.128;4.566;2022-12-29T02:13:47;11.20;99.90
10388;DHT22;5240;51.128;4.566;2022-12-29T02:16:31;11.20;99.90
10388;DHT22;5240;51.128;4.566;2022-12-29T02:22:05;11.10;99.90
10388;DHT22;5240;51.128;4.566;2022-12-29T02:25:00;11.00;99.90
10388;DHT22;5240;51.128;4.566;2022-12-29T02:27:43;11.00;99.90
10388;DHT22;5240;51.128;4.566;2022-12-29T02:30:49;11.00;99.90
10388;DHT22;5240;51.128;4.566;2022-12-29T02:33:30;11.00;99.90
10388;DHT22;5240;51.128;4.566;2022-12-29T02:36:07;11.00;99.90
10388;DHT22;5240;51.128;4.566;2022-12-29T02:38:49;11.00;99.90
10388;DHT22;5240;51.128;4.566;2022-12-29T02:41:24;11.00;99.90
10388;DHT22;5240;51.128;4.566;2022-12-29T02:43:56;11.00;99.90
10388;DHT22;5240;51.128;4.566;2022-12-29T02:46:33;10.90;99.90
10388;DHT22;5240;51.128;4.566;2022-12-29T02:49:09;10.90;99.90
10388;DHT22;5240;51.128;4.566;2022-12-29T02:51:43;10.90;99.90
10388;DHT22;5240;51.128;4.566;2022-12-29T02:54:10;10.90;99.90
10388;DHT22;5240;51.128;4.566;2022-12-29T02:56:55;10.80;99.90
10388;DHT22;5240;51.128;4.566;2022-12-29T02:59:22;10.80;99.90
10388;DHT22;5240;51.128;4.566;2022-12-29T03:02:14;10.80;99.90
10388;DHT22;5240;51.128;4.566;2022-12-29T03:08:00;10.60;99.90
10388;DHT22;5240;51.128;4.566;2022-12-29T03:10:38;10.60;99.90
10388;DHT22;5240;51.128;4.566;2022-12-29T03:13:14;10.50;99.90
10388;DHT22;5240;51.128;4.566;2022-12-29T03:16:05;10.50;99.90
10388;DHT22;5240;51.128;4.566;2022-12-29T03:18:42;10.60;99.90
10388;DHT22;5240;51.128;4.566;2022-12-29T03:21:15;10.60;99.90
10388;DHT22;5240;51.128;4.566;2022-12-29T03:23:45;10.50;99.90
10388;DHT22;5240;51.128;4.566;2022-12-29T03:26:16;10.50;99.90
10388;DHT22;5240;51.128;4.566;2022-12-29T03:28:50;10.50;99.90
10388;DHT22;5240;51.128;4.566;2022-12-29T03:31:19;10.50;99.90
10388;DHT22;5240;51.128;4.566;2022-12-29T03:33:49;10.40;99.90
10388;DHT22;5240;51.128;4.566;2022-12-29T03:36:23;10.40;99.90
10388;DHT22;5240;51.128;4.566;2022-12-29T03:38:58;10.30;99.90
10388;DHT22;5240;51.128;4.566;2022-12-29T03:41:30;10.30;99.90
10388;DHT22;5240;51.128;4.566;2022-12-29T03:43:57;10.20;99.90
10388;DHT22;5240;51.128;4.566;2022-12-29T03:46:24;10.20;99.90
10388;DHT22;5240;51.128;4.566;2022-12-29T03:48:52;10.20;99.90
10388;DHT22;5240;51.128;4.566;2022-12-29T03:51:19;10.30;99.90
10388;DHT22;5240;51.128;4.566;2022-12-29T03:53:46;10.30;99.90
10388;DHT22;5240;51.128;4.566;2022-12-29T03:56:13;10.30;99.90
10388;DHT22;5240;51.128;4.566;2022-12-29T03:58:40;10.30;99.90
10388;DHT22;5240;51.128;4.566;2022-12-29T04:01:07;10.30;99.90
10388;DHT22;5240;51.128;4.566;2022-12-29T04:03:35;10.30;99.90
10388;DHT22;5240;51.128;4.566;2022-12-29T04:06:03;10.20;99.90
10388;DHT22;5240;51.128;4.566;2022-12-29T04:08:30;10.30;99.90
10388;DHT22;5240;51.128;4.566;2022-12-29T04:10:57;10.30;99.90
10388;DHT22;5240;51.128;4.566;2022-12-29T04:13:24;10.20;99.90
10388;DHT22;5240;51.128;4.566;2022-12-29T04:15:51;10.10;99.90
10388;DHT22;5240;51.128;4.566;2022-12-29T04:18:18;10.20;99.90
10388;DHT22;5240;51.128;4.566;2022-12-29T04:20:45;10.10;99.90
10388;DHT22;5240;51.128;4.566;2022-12-29T04:23:31;10.10;99.90
10388;DHT22;5240;51.128;4.566;2022-12-29T04:25:58;10.10;99.90
10388;DHT22;5240;51.128;4.566;2022-12-29T04:28:25;10.10;99.90
10388;DHT22;5240;51.128;4.566;2022-12-29T04:30:53;10.00;99.90
10388;DHT22;5240;51.128;4.566;2022-12-29T04:33:21;10.00;99.90
10388;DHT22;5240;51.128;4.566;2022-12-29T04:35:48;10.00;99.90
10388;DHT22;5240;51.128;4.566;2022-12-29T04:38:15;10.00;99.90
10388;DHT22;5240;51.128;4.566;2022-12-29T04:40:44;10.00;99.90
10388;DHT22;5240;51.128;4.566;2022-12-29T04:43:12;10.00;99.90
10388;DHT22;5240;51.128;4.566;2022-12-29T04:45:39;10.10;99.90
10388;DHT22;5240;51.128;4.566;2022-12-29T04:48:09;10.10;99.90
10388;DHT22;5240;51.128;4.566;2022-12-29T04:50:36;10.20;99.90
10388;DHT22;5240;51.128;4.566;2022-12-29T04:53:03;10.20;99.90
10388;DHT22;5240;51.128;4.566;2022-12-29T04:55:30;10.30;99.90
10388;DHT22;5240;51.128;4.566;2022-12-29T04:57:59;10.40;99.90
10388;DHT22;5240;51.128;4.566;2022-12-29T05:00:26;10.40;99.90
10388;DHT22;5240;51.128;4.566;2022-12-29T05:02:53;10.50;99.90
10388;DHT22;5240;51.128;4.566;2022-12-29T05:05:20;10.40;99.90
10388;DHT22;5240;51.128;4.566;2022-12-29T05:07:47;10.40;99.90
10388;DHT22;5240;51.128;4.566;2022-12-29T05:10:14;10.40;99.90
10388;DHT22;5240;51.128;4.566;2022-12-29T05:12:41;10.40;99.90
10388;DHT22;5240;51.128;4.566;2022-12-29T05:15:10;10.40;99.90
10388;DHT22;5240;51.128;4.566;2022-12-29T05:17:37;10.40;99.90
10388;DHT22;5240;51.128;4.566;2022-12-29T05:20:06;10.40;99.90
10388;DHT22;5240;51.128;4.566;2022-12-29T05:22:33;10.40;99.90
10388;DHT22;5240;51.128;4.566;2022-12-29T05:25:00;10.40;99.90
10388;DHT22;5240;51.128;4.566;2022-12-29T05:27:27;10.30;99.90
10388;DHT22;5240;51.128;4.566;2022-12-29T05:29:54;10.30;99.90
10388;DHT22;5240;51.128;4.566;2022-12-29T05:32:22;10.30;99.90
10388;DHT22;5240;51.128;4.566;2022-12-29T05:34:49;10.20;99.90
10388;DHT22;5240;51.128;4.566;2022-12-29T05:37:16;10.20;99.90
10388;DHT22;5240;51.128;4.566;2022-12-29T05:39:43;10.20;99.90
10388;DHT22;5240;51.128;4.566;2022-12-29T05:42:10;10.20;99.90
10388;DHT22;5240;51.128;4.566;2022-12-29T05:44:37;10.20;99.90
10388;DHT22;5240;51.128;4.566;2022-12-29T05:47:04;10.20;99.90
10388;DHT22;5240;51.128;4.566;2022-12-29T05:49:33;10.30;99.90
10388;DHT22;5240;51.128;4.566;2022-12-29T05:52:00;10.30;99.90
10388;DHT22;5240;51.128;4.566;2022-12-29T05:54:27;10.40;99.90
10388;DHT22;5240;51.128;4.566;2022-12-29T05:56:54;10.40;99.90
10388;DHT22;5240;51.128;4.566;2022-12-29T05:59:21;10.50;99.90
10388;DHT22;5240;51.128;4.566;2022-12-29T06:01:48;10.50;99.90
10388;DHT22;5240;51.128;4.566;2022-12-29T06:04:16;10.50;99.90
10388;DHT22;5240;51.128;4.566;2022-12-29T06:06:44;10.50;99.90
10388;DHT22;5240;51.128;4.566;2022-12-29T06:09:11;10.50;99.90
10388;DHT22;5240;51.128;4.566;2022-12-29T06:11:38;10.50;99.90
10388;DHT22;5240;51.128;4.566;2022-12-29T06:14:05;10.50;99.90
10388;DHT22;5240;51.128;4.566;2022-12-29T06:16:32;10.50;99.90
10388;DHT22;5240;51.128;4.566;2022-12-29T06:18:59;10.50;99.90
10388;DHT22;5240;51.128;4.566;2022-12-29T06:21:26;10.50;99.90
10388;DHT22;5240;51.128;4.566;2022-12-29T06:23:55;10.50;99.90
10388;DHT22;5240;51.128;4.566;2022-12-29T06:26:22;10.50;99.90
10388;DHT22;5240;51.128;4.566;2022-12-29T06:28:49;10.50;99.90
10388;DHT22;5240;51.128;4.566;2022-12-29T06:31:16;10.50;99.90
10388;DHT22;5240;51.128;4.566;2022-12-29T06:33:43;10.60;99.90
10388;DHT22;5240;51.128;4.566;2022-12-29T06:36:10;10.50;99.90
10388;DHT22;5240;51.128;4.566;2022-12-29T06:38:37;10.50;99.90
10388;DHT22;5240;51.128;4.566;2022-12-29T06:41:05;10.50;99.90
10388;DHT22;5240;51.128;4.566;2022-12-29T06:43:32;10.40;99.90
10388;DHT22;5240;51.128;4.566;2022-12-29T06:46:01;10.40;99.90
10388;DHT22;5240;51.128;4.566;2022-12-29T06:48:28;10.40;99.90
10388;DHT22;5240;51.128;4.566;2022-12-29T06:50:55;10.50;99.90
10388;DHT22;5240;51.128;4.566;2022-12-29T06:53:22;10.50;99.90
10388;DHT22;5240;51.128;4.566;2022-12-29T06:55:49;10.60;99.90
10388;DHT22;5240;51.128;4.566;2022-12-29T06:58:18;10.60;99.90
10388;DHT22;5240;51.128;4.566;2022-12-29T07:00:45;10.60;99.90
10388;DHT22;5240;51.128;4.566;2022-12-29T07:03:12;10.60;99.90
10388;DHT22;5240;51.128;4.566;2022-12-29T07:05:39;10.60;99.90
10388;DHT22;5240;51.128;4.566;2022-12-29T07:08:06;10.60;99.90
10388;DHT22;5240;51.128;4.566;2022-12-29T07:10:33;10.60;99.90
10388;DHT22;5240;51.128;4.566;2022-12-29T07:13:00;10.60;99.90
10388;DHT22;5240;51.128;4.566;2022-12-29T07:15:28;10.60;99.90
10388;DHT22;5240;51.128;4.566;2022-12-29T07:17:55;10.60;99.90
10388;DHT22;5240;51.128;4.566;2022-12-29T07:20:23;10.50;99.90
10388;DHT22;5240;51.128;4.566;2022-12-29T07:22:50;10.50;99.90
10388;DHT22;5240;51.128;4.566;2022-12-29T07:25:17;10.60;99.90
10388;DHT22;5240;51.128;4.566;2022-12-29T07:27:44;10.50;99.90
10388;DHT22;5240;51.128;4.566;2022-12-29T07:30:12;10.50;99.90
10388;DHT22;5240;51.128;4.566;2022-12-29T07:32:40;10.50;99.90
10388;DHT22;5240;51.128;4.566;2022-12-29T07:35:07;10.60;99.90
10388;DHT22;5240;51.128;4.566;2022-12-29T07:37:35;10.50;99.90
10388;DHT22;5240;51.128;4.566;2022-12-29T07:40:03;10.50;99.90
10388;DHT22;5240;51.128;4.566;2022-12-29T07:42:31;10.50;99.90
10388;DHT22;5240;51.128;4.566;2022-12-29T07:44:58;10.50;99.90
10388;DHT22;5240;51.128;4.566;2022-12-29T07:47:25;10.60;99.90
10388;DHT22;5240;51.128;4.566;2022-12-29T07:49:54;10.70;99.90
10388;DHT22;5240;51.128;4.566;2022-12-29T07:52:21;10.70;99.90
10388;DHT22;5240;51.128;4.566;2022-12-29T07:54:48;10.70;99.90
10388;DHT22;5240;51.128;4.566;2022-12-29T07:57:15;10.70;99.90
10388;DHT22;5240;51.128;4.566;2022-12-29T07:59:42;10.70;99.90
10388;DHT22;5240;51.128;4.566;2022-12-29T08:02:10;10.70;99.90
10388;DHT22;5240;51.128;4.566;2022-12-29T08:04:38;10.70;99.90
10388;DHT22;5240;51.128;4.566;2022-12-29T08:07:06;10.70;99.90
10388;DHT22;5240;51.128;4.566;2022-12-29T08:09:33;10.70;99.90
10388;DHT22;5240;51.128;4.566;2022-12-29T08:12:00;10.70;99.90
10388;DHT22;5240;51.128;4.566;2022-12-29T08:14:27;10.70;99.90
10388;DHT22;5240;51.128;4.566;2022-12-29T08:16:54;10.80;99.90
10388;DHT22;5240;51.128;4.566;2022-12-29T08:19:21;10.80;99.90
10388;DHT22;5240;51.128;4.566;2022-12-29T08:21:48;10.80;99.90
10388;DHT22;5240;51.128;4.566;2022-12-29T08:24:17;10.80;99.90
10388;DHT22;5240;51.128;4.566;2022-12-29T08:26:44;10.80;99.90
10388;DHT22;5240;51.128;4.566;2022-12-29T08:29:11;10.80;99.90
10388;DHT22;5240;51.128;4.566;2022-12-29T08:31:38;10.70;99.90
10388;DHT22;5240;51.128;4.566;2022-12-29T08:34:05;10.70;99.90
10388;DHT22;5240;51.128;4.566;2022-12-29T08:36:32;10.70;99.90
10388;DHT22;5240;51.128;4.566;2022-12-29T08:38:59;10.70;99.90
10388;DHT22;5240;51.128;4.566;2022-12-29T08:41:27;10.70;99.90
10388;DHT22;5240;51.128;4.566;2022-12-29T08:43:54;10.70;99.90
10388;DHT22;5240;51.128;4.566;2022-12-29T08:46:21;10.60;99.90
10388;DHT22;5240;51.128;4.566;2022-12-29T08:48:49;10.60;99.90
10388;DHT22;5240;51.128;4.566;2022-12-29T08:51:15;10.50;99.90
10388;DHT22;5240;51.128;4.566;2022-12-29T08:53:43;10.60;99.90
10388;DHT22;5240;51.128;4.566;2022-12-29T08:56:10;10.60;99.90
10388;DHT22;5240;51.128;4.566;2022-12-29T08:58:39;10.60;99.90
10388;DHT22;5240;51.128;4.566;2022-12-29T09:01:06;10.60;99.90
10388;DHT22;5240;51.128;4.566;2022-12-29T09:03:33;10.60;99.90
10388;DHT22;5240;51.128;4.566;2022-12-29T09:06:00;10.60;99.90
10388;DHT22;5240;51.128;4.566;2022-12-29T09:08:27;10.50;99.90
10388;DHT22;5240;51.128;4.566;2022-12-29T09:10:54;10.40;99.90
10388;DHT22;5240;51.128;4.566;2022-12-29T09:13:21;10.40;99.90
10388;DHT22;5240;51.128;4.566;2022-12-29T09:15:58;10.30;99.90
10388;DHT22;5240;51.128;4.566;2022-12-29T09:18:25;10.30;99.90
10388;DHT22;5240;51.128;4.566;2022-12-29T09:20:56;10.20;99.90
10388;DHT22;5240;51.128;4.566;2022-12-29T09:23:23;10.20;99.90
10388;DHT22;5240;51.128;4.566;2022-12-29T09:25:50;10.20;99.90
10388;DHT22;5240;51.128;4.566;2022-12-29T09:28:17;10.20;99.90
10388;DHT22;5240;51.128;4.566;2022-12-29T09:30:44;10.10;99.90
10388;DHT22;5240;51.128;4.566;2022-12-29T09:33:13;10.10;99.90
10388;DHT22;5240;51.128;4.566;2022-12-29T09:35:41;10.10;99.90
10388;DHT22;5240;51.128;4.566;2022-12-29T09:38:09;10.10;99.90
10388;DHT22;5240;51.128;4.566;2022-12-29T09:40:38;10.20;99.90
10388;DHT22;5240;51.128;4.566;2022-12-29T09:46:10;10.20;99.90
10388;DHT22;5240;51.128;4.566;2022-12-29T09:48:44;10.20;99.90
10388;DHT22;5240;51.128;4.566;2022-12-29T09:51:16;10.10;99.90
10388;DHT22;5240;51.128;4.566;2022-12-29T09:53:47;10.10;99.90
10388;DHT22;5240;51.128;4.566;2022-12-29T09:56:18;10.10;99.90
10388;DHT22;5240;51.128;4.566;2022-12-29T09:58:50;10.10;99.90
10388;DHT22;5240;51.128;4.566;2022-12-29T10:01:26;10.10;99.90
10388;DHT22;5240;51.128;4.566;2022-12-29T10:03:57;10.10;99.90
10388;DHT22;5240;51.128;4.566;2022-12-29T10:06:26;10.00;99.90
10388;DHT22;5240;51.128;4.566;2022-12-29T10:09:01;10.00;99.90
10388;DHT22;5240;51.128;4.566;2022-12-29T10:11:38;10.00;99.90
10388;DHT22;5240;51.128;4.566;2022-12-29T10:14:21;9.90;99.90
10388;DHT22;5240;51.128;4.566;2022-12-29T10:16:59;10.00;99.90
10388;DHT22;5240;51.128;4.566;2022-12-29T10:19:41;10.00;99.90
10388;DHT22;5240;51.128;4.566;2022-12-29T10:22:24;10.00;99.90
10388;DHT22;5240;51.128;4.566;2022-12-29T10:24:57;10.00;99.90
10388;DHT22;5240;51.128;4.566;2022-12-29T10:27:31;10.00;99.90
10388;DHT22;5240;51.128;4.566;2022-12-29T10:30:01;10.10;99.90
10388;DHT22;5240;51.128;4.566;2022-12-29T10:32:32;10.10;99.90
10388;DHT22;5240;51.128;4.566;2022-12-29T10:35:07;10.00;99.90
10388;DHT22;5240;51.128;4.566;2022-12-29T10:37:41;9.90;99.90
10388;DHT22;5240;51.128;4.566;2022-12-29T10:40:18;9.90;99.90
10388;DHT22;5240;51.128;4.566;2022-12-29T10:42:50;9.90;99.90
10388;DHT22;5240;51.128;4.566;2022-12-29T10:45:19;9.90;99.90
10388;DHT22;5240;51.128;4.566;2022-12-29T10:47:53;9.90;99.90
10388;DHT22;5240;51.128;4.566;2022-12-29T10:50:24;10.00;99.90
10388;DHT22;5240;51.128;4.566;2022-12-29T10:52:52;10.20;99.90
10388;DHT22;5240;51.128;4.566;2022-12-29T10:55:23;10.30;99.90
10388;DHT22;5240;51.128;4.566;2022-12-29T10:57:53;10.40;99.90
10388;DHT22;5240;51.128;4.566;2022-12-29T11:00:23;10.50;99.90
10388;DHT22;5240;51.128;4.566;2022-12-29T11:05:44;10.80;99.90
10388;DHT22;5240;51.128;4.566;2022-12-29T11:08:15;10.80;99.90
10388;DHT22;5240;51.128;4.566;2022-12-29T11:10:44;10.80;99.90
10388;DHT22;5240;51.128;4.566;2022-12-29T11:13:14;10.80;99.90
10388;DHT22;5240;51.128;4.566;2022-12-29T11:15:43;10.80;99.90
10388;DHT22;5240;51.128;4.566;2022-12-29T11:18:21;10.80;99.90
10388;DHT22;5240;51.128;4.566;2022-12-29T11:20:52;10.90;99.90
10388;DHT22;5240;51.128;4.566;2022-12-29T11:23:30;11.00;99.90
10388;DHT22;5240;51.128;4.566;2022-12-29T11:26:19;10.90;99.90
10388;DHT22;5240;51.128;4.566;2022-12-29T11:29:04;10.90;99.90
10388;DHT22;5240;51.128;4.566;2022-12-29T11:31:40;11.00;99.90
10388;DHT22;5240;51.128;4.566;2022-12-29T11:34:07;11.00;99.90
10388;DHT22;5240;51.128;4.566;2022-12-29T11:36:36;11.00;99.90
10388;DHT22;5240;51.128;4.566;2022-12-29T11:39:04;11.10;99.90
10388;DHT22;5240;51.128;4.566;2022-12-29T11:41:32;11.10;99.90
10388;DHT22;5240;51.128;4.566;2022-12-29T11:44:01;11.20;99.90
10388;DHT22;5240;51.128;4.566;2022-12-29T11:46:31;11.20;99.90
10388;DHT22;5240;51.128;4.566;2022-12-29T11:48:59;11.20;99.90
10388;DHT22;5240;51.128;4.566;2022-12-29T11:51:30;11.10;99.90
10388;DHT22;5240;51.128;4.566;2022-12-29T11:54:00;11.10;99.90
10388;DHT22;5240;51.128;4.566;2022-12-29T11:56:35;11.00;99.90
10388;DHT22;5240;51.128;4.566;2022-12-29T11:59:25;11.00;99.90
10388;DHT22;5240;51.128;4.566;2022-12-29T12:02:10;10.90;99.90
10388;DHT22;5240;51.128;4.566;2022-12-29T12:04:38;10.90;99.90
10388;DHT22;5240;51.128;4.566;2022-12-29T12:07:13;11.00;99.90
10388;DHT22;5240;51.128;4.566;2022-12-29T12:09:47;11.00;99.90
10388;DHT22;5240;51.128;4.566;2022-12-29T12:12:27;11.10;99.90
10388;DHT22;5240;51.128;4.566;2022-12-29T12:14:58;11.20;99.90
10388;DHT22;5240;51.128;4.566;2022-12-29T12:17:29;11.10;99.90
10388;DHT22;5240;51.128;4.566;2022-12-29T12:20:12;11.10;99.90
10388;DHT22;5240;51.128;4.566;2022-12-29T12:22:45;11.40;99.90
10388;DHT22;5240;51.128;4.566;2022-12-29T12:25:20;10.90;99.90
10388;DHT22;5240;51.128;4.566;2022-12-29T12:27:51;10.80;99.90
10388;DHT22;5240;51.128;4.566;2022-12-29T12:30:20;10.60;99.90
10388;DHT22;5240;51.128;4.566;2022-12-29T12:32:52;10.50;99.90
10388;DHT22;5240;51.128;4.566;2022-12-29T12:35:28;10.30;99.90
10388;DHT22;5240;51.128;4.566;2022-12-29T12:38:16;10.10;99.90
10388;DHT22;5240;51.128;4.566;2022-12-29T12:40:59;9.90;99.90
10388;DHT22;5240;51.128;4.566;2022-12-29T12:43:49;9.80;99.90
10388;DHT22;5240;51.128;4.566;2022-12-29T12:46:39;9.80;99.90
10388;DHT22;5240;51.128;4.566;2022-12-29T12:49:41;9.70;99.90
10388;DHT22;5240;51.128;4.566;2022-12-29T12:52:16;9.70;99.90
10388;DHT22;5240;51.128;4.566;2022-12-29T12:54:56;9.80;99.90
10388;DHT22;5240;51.128;4.566;2022-12-29T12:57:40;9.80;99.90
10388;DHT22;5240;51.128;4.566;2022-12-29T13:00:11;9.90;99.90
10388;DHT22;5240;51.128;4.566;2022-12-29T13:03:02;9.90;99.90
10388;DHT22;5240;51.128;4.566;2022-12-29T13:05:57;9.80;99.90
10388;DHT22;5240;51.128;4.566;2022-12-29T13:08:48;9.80;99.90
10388;DHT22;5240;51.128;4.566;2022-12-29T13:11:25;9.80;99.90
10388;DHT22;5240;51.128;4.566;2022-12-29T13:14:06;9.80;99.90
10388;DHT22;5240;51.128;4.566;2022-12-29T13:16:44;10.00;99.90
10388;DHT22;5240;51.128;4.566;2022-12-29T13:19:17;10.10;99.90
10388;DHT22;5240;51.128;4.566;2022-12-29T13:21:57;10.20;99.90
10388;DHT22;5240;51.128;4.566;2022-12-29T13:24:36;10.10;99.90
10388;DHT22;5240;51.128;4.566;2022-12-29T13:27:13;10.00;99.90
10388;DHT22;5240;51.128;4.566;2022-12-29T13:29:50;10.00;99.90
10388;DHT22;5240;51.128;4.566;2022-12-29T13:32:26;10.10;99.90
10388;DHT22;5240;51.128;4.566;2022-12-29T13:35:10;10.10;99.90
10388;DHT22;5240;51.128;4.566;2022-12-29T13:37:47;10.20;99.90
10388;DHT22;5240;51.128;4.566;2022-12-29T13:40:18;10.20;99.90
10388;DHT22;5240;51.128;4.566;2022-12-29T13:42:48;10.20;99.90
10388;DHT22;5240;51.128;4.566;2022-12-29T13:45:19;10.20;99.90
10388;DHT22;5240;51.128;4.566;2022-12-29T13:47:51;10.20;99.90
10388;DHT22;5240;51.128;4.566;2022-12-29T13:50:22;10.20;99.90
10388;DHT22;5240;51.128;4.566;2022-12-29T13:52:58;10.10;99.90
10388;DHT22;5240;51.128;4.566;2022-12-29T13:55:31;10.10;99.90
10388;DHT22;5240;51.128;4.566;2022-12-29T13:58:04;10.00;99.90
10388;DHT22;5240;51.128;4.566;2022-12-29T14:00:45;10.00;99.90
10388;DHT22;5240;51.128;4.566;2022-12-29T14:03:43;9.90;99.90
10388;DHT22;5240;51.128;4.566;2022-12-29T14:06:21;9.80;99.90
10388;DHT22;5240;51.128;4.566;2022-12-29T14:08:51;9.80;99.90
10388;DHT22;5240;51.128;4.566;2022-12-29T14:11:22;9.70;99.90
10388;DHT22;5240;51.128;4.566;2022-12-29T14:13:51;9.60;99.90
10388;DHT22;5240;51.128;4.566;2022-12-29T14:16:30;9.50;99.90
10388;DHT22;5240;51.128;4.566;2022-12-29T14:19:05;9.30;99.90
10388;DHT22;5240;51.128;4.566;2022-12-29T14:21:33;9.20;99.90
10388;DHT22;5240;51.128;4.566;2022-12-29T14:24:41;9.20;99.90
10388;DHT22;5240;51.128;4.566;2022-12-29T14:30:49;9.00;99.90
10388;DHT22;5240;51.128;4.566;2022-12-29T14:33:19;8.90;99.90
10388;DHT22;5240;51.128;4.566;2022-12-29T14:35:48;8.90;99.90
10388;DHT22;5240;51.128;4.566;2022-12-29T14:38:28;8.90;99.90
10388;DHT22;5240;51.128;4.566;2022-12-29T14:41:16;8.80;99.90
10388;DHT22;5240;51.128;4.566;2022-12-29T14:43:53;8.70;99.90
10388;DHT22;5240;51.128;4.566;2022-12-29T14:46:21;8.60;99.90
10388;DHT22;5240;51.128;4.566;2022-12-29T14:48:55;8.60;99.90
10388;DHT22;5240;51.128;4.566;2022-12-29T14:51:32;8.60;99.90
10388;DHT22;5240;51.128;4.566;2022-12-29T14:54:35;8.50;99.90
10388;DHT22;5240;51.128;4.566;2022-12-29T14:57:09;8.40;99.90
10388;DHT22;5240;51.128;4.566;2022-12-29T14:59:37;8.40;99.90
10388;DHT22;5240;51.128;4.566;2022-12-29T15:02:15;8.40;99.90
10388;DHT22;5240;51.128;4.566;2022-12-29T15:04:44;8.40;99.90
10388;DHT22;5240;51.128;4.566;2022-12-29T15:07:12;8.40;99.90
10388;DHT22;5240;51.128;4.566;2022-12-29T15:09:42;8.40;99.90
10388;DHT22;5240;51.128;4.566;2022-12-29T15:12:20;8.40;99.90
10388;DHT22;5240;51.128;4.566;2022-12-29T15:14:50;8.30;99.90
10388;DHT22;5240;51.128;4.566;2022-12-29T15:17:25;8.30;99.90
10388;DHT22;5240;51.128;4.566;2022-12-29T15:19:56;8.30;99.90
10388;DHT22;5240;51.128;4.566;2022-12-29T15:22:23;8.30;99.90
10388;DHT22;5240;51.128;4.566;2022-12-29T15:24:53;8.30;99.90
10388;DHT22;5240;51.128;4.566;2022-12-29T15:27:22;8.40;99.90
10388;DHT22;5240;51.128;4.566;2022-12-29T15:29:56;8.40;99.90
10388;DHT22;5240;51.128;4.566;2022-12-29T15:32:25;8.30;99.90
10388;DHT22;5240;51.128;4.566;2022-12-29T15:34:55;8.30;99.90
10388;DHT22;5240;51.128;4.566;2022-12-29T15:37:24;8.30;99.90
10388;DHT22;5240;51.128;4.566;2022-12-29T15:39:53;8.30;99.90
10388;DHT22;5240;51.128;4.566;2022-12-29T15:42:48;8.30;99.90
10388;DHT22;5240;51.128;4.566;2022-12-29T15:45:16;8.30;99.90
10388;DHT22;5240;51.128;4.566;2022-12-29T15:47:44;8.20;99.90
10388;DHT22;5240;51.128;4.566;2022-12-29T15:50:22;8.20;99.90
10388;DHT22;5240;51.128;4.566;2022-12-29T15:52:49;8.30;99.90
10388;DHT22;5240;51.128;4.566;2022-12-29T15:55:24;8.30;99.90
10388;DHT22;5240;51.128;4.566;2022-12-29T15:57:56;8.40;99.90
10388;DHT22;5240;51.128;4.566;2022-12-29T16:00:25;8.50;99.90
10388;DHT22;5240;51.128;4.566;2022-12-29T16:02:54;8.50;99.90
10388;DHT22;5240;51.128;4.566;2022-12-29T16:05:23;8.50;99.90
10388;DHT22;5240;51.128;4.566;2022-12-29T16:07:55;8.50;99.90
10388;DHT22;5240;51.128;4.566;2022-12-29T16:10:26;8.50;99.90
10388;DHT22;5240;51.128;4.566;2022-12-29T16:13:01;8.50;99.90
10388;DHT22;5240;51.128;4.566;2022-12-29T16:15:29;8.50;99.90
10388;DHT22;5240;51.128;4.566;2022-12-29T16:17:56;8.50;99.90
10388;DHT22;5240;51.128;4.566;2022-12-29T16:20:31;8.40;99.90
10388;DHT22;5240;51.128;4.566;2022-12-29T16:23:01;8.40;99.90
10388;DHT22;5240;51.128;4.566;2022-12-29T16:25:30;8.30;99.90
10388;DHT22;5240;51.128;4.566;2022-12-29T16:27:58;8.30;99.90
10388;DHT22;5240;51.128;4.566;2022-12-29T16:30:27;8.20;99.90
10388;DHT22;5240;51.128;4.566;2022-12-29T16:32:56;8.20;99.90
10388;DHT22;5240;51.128;4.566;2022-12-29T16:35:26;8.10;99.90